Time;durP1;ratioP1;P1;durP2;ratioP2;P2;SDS_P1;SDS_P2;PMS_P1;PMS_P2;Temp;Humidity;BMP_temperature;BMP_pressure;BME280_temperature;BME280_humidity;BME280_pressure;Samples;Min_cycle;Max_cycle;Signal;HPM_P1;HPM_P2
2021/07/04 00:00:31;;;;;;;10.25;7.32;;;19.00;91.90;;;;;;5068530;28;20011;-87
2021/07/04 00:02:59;;;;;;;15.20;9.30;;;18.90;91.90;;;;;;5072417;28;20469;-87
2021/07/04 00:05:34;;;;;;;13.02;8.40;;;18.90;92.00;;;;;;5072184;28;20042;-88
2021/07/04 00:07:59;;;;;;;13.88;9.82;;;18.90;91.90;;;;;;5071652;28;20028;-88
2021/07/04 00:10:33;;;;;;;13.02;10.10;;;19.00;92.00;;;;;;5061206;28;20024;-89
2021/07/04 00:12:58;;;;;;;14.32;9.68;;;18.90;92.00;;;;;;5057851;28;20052;-89
2021/07/04 00:15:34;;;;;;;12.52;9.63;;;18.90;92.10;;;;;;5058805;28;20052;-88
2021/07/04 00:18:00;;;;;;;10.85;7.90;;;18.90;92.10;;;;;;5057523;28;20441;-88
2021/07/04 00:20:25;;;;;;;13.13;10.02;;;18.90;92.10;;;;;;5057934;28;20025;-88
2021/07/04 00:22:54;;;;;;;14.80;10.75;;;18.90;92.20;;;;;;5057490;28;20024;-87
2021/07/04 00:25:20;;;;;;;9.35;6.38;;;18.90;92.30;;;;;;5057341;28;20025;-85
2021/07/04 00:27:46;;;;;;;11.30;8.77;;;18.90;91.80;;;;;;5056763;28;20465;-87
2021/07/04 00:30:14;;;;;;;13.43;9.68;;;18.90;91.90;;;;;;5057308;28;20123;-88
2021/07/04 00:32:40;;;;;;;9.88;8.00;;;18.80;92.10;;;;;;5056825;28;20135;-87
2021/07/04 00:35:07;;;;;;;9.80;7.30;;;18.80;92.00;;;;;;5056438;28;20021;-86
2021/07/04 00:37:33;;;;;;;10.93;7.85;;;18.80;92.10;;;;;;5056351;28;20469;-85
2021/07/04 00:39:58;;;;;;;11.50;7.80;;;18.80;92.10;;;;;;5057256;28;20039;-84
2021/07/04 00:42:24;;;;;;;11.55;8.02;;;18.80;92.20;;;;;;5057101;28;20032;-85
2021/07/04 00:44:51;;;;;;;9.65;6.75;;;18.80;92.10;;;;;;5056778;28;20392;-85
2021/07/04 00:47:17;;;;;;;10.73;7.65;;;18.80;91.80;;;;;;5056623;28;20109;-86
2021/07/04 00:49:42;;;;;;;13.70;9.02;;;18.70;92.20;;;;;;5057541;28;20432;-86
2021/07/04 00:52:09;;;;;;;10.18;6.18;;;18.70;92.40;;;;;;5059412;28;20071;-86
2021/07/04 00:54:36;;;;;;;8.93;6.47;;;18.70;92.20;;;;;;5056532;28;20028;-87
2021/07/04 00:57:02;;;;;;;13.07;7.53;;;18.70;92.40;;;;;;5059025;28;20020;-86
2021/07/04 00:59:28;;;;;;;9.15;6.28;;;18.60;92.60;;;;;;5059111;28;20027;-85
2021/07/04 01:01:58;;;;;;;10.68;7.60;;;18.60;92.60;;;;;;5070486;28;20068;-85
2021/07/04 01:04:24;;;;;;;11.50;8.55;;;18.60;92.70;;;;;;5076510;28;20029;-86
2021/07/04 01:06:50;;;;;;;7.85;5.78;;;18.60;92.70;;;;;;5071757;28;20033;-87
2021/07/04 01:09:15;;;;;;;8.90;6.90;;;18.60;92.70;;;;;;5058255;28;20025;-86
2021/07/04 01:11:41;;;;;;;10.38;7.90;;;18.60;92.70;;;;;;5060978;28;20433;-86
2021/07/04 01:14:07;;;;;;;10.50;7.80;;;18.70;92.80;;;;;;5076419;28;20039;-88
2021/07/04 01:16:33;;;;;;;10.65;7.47;;;18.60;92.80;;;;;;5058073;28;20033;-87
2021/07/04 01:18:58;;;;;;;11.68;7.18;;;18.70;92.80;;;;;;5059262;28;20112;-87
2021/07/04 01:21:26;;;;;;;10.38;7.47;;;18.70;92.70;;;;;;5057815;28;20174;-87
2021/07/04 01:23:52;;;;;;;10.05;7.30;;;18.70;92.80;;;;;;5056477;28;20032;-87
2021/07/04 01:26:17;;;;;;;9.13;6.75;;;18.70;92.80;;;;;;5056497;28;20036;-86
2021/07/04 01:28:43;;;;;;;10.35;7.38;;;18.70;92.90;;;;;;5057695;28;20529;-87
2021/07/04 01:31:09;;;;;;;10.98;7.60;;;18.70;93.00;;;;;;5059321;28;20101;-88
2021/07/04 01:33:35;;;;;;;11.23;7.72;;;18.80;92.90;;;;;;5059698;28;20457;-87
2021/07/04 01:36:00;;;;;;;10.18;7.65;;;18.70;92.80;;;;;;5060218;28;20109;-87
2021/07/04 01:38:26;;;;;;;9.95;7.10;;;18.70;92.80;;;;;;5060724;28;20008;-89
2021/07/04 01:40:52;;;;;;;10.50;7.32;;;18.80;92.90;;;;;;5059951;28;20017;-88
2021/07/04 01:43:18;;;;;;;10.18;7.38;;;18.80;92.90;;;;;;5058923;28;20024;-88
2021/07/04 01:45:44;;;;;;;11.63;7.88;;;18.80;92.90;;;;;;5060379;28;20366;-89
2021/07/04 01:48:10;;;;;;;8.77;6.65;;;18.80;92.90;;;;;;5061080;28;20098;-88
2021/07/04 01:50:42;;;;;;;10.85;7.75;;;18.80;92.80;;;;;;5076503;28;20150;-88
2021/07/04 01:53:08;;;;;;;9.85;6.80;;;18.70;92.70;;;;;;5079102;28;20016;-86
2021/07/04 01:55:33;;;;;;;9.23;6.07;;;18.70;92.70;;;;;;5071654;28;20111;-86
2021/07/04 01:57:59;;;;;;;11.15;7.65;;;18.70;92.70;;;;;;5059612;28;20448;-87
2021/07/04 02:00:28;;;;;;;11.15;6.60;;;18.70;92.70;;;;;;5066251;28;20021;-87
2021/07/04 02:02:55;;;;;;;7.47;5.10;;;18.70;92.80;;;;;;5070802;28;20380;-88
2021/07/04 02:05:21;;;;;;;10.52;6.57;;;18.70;92.70;;;;;;5076349;28;20024;-87
2021/07/04 02:07:47;;;;;;;8.65;6.43;;;18.70;92.70;;;;;;5075918;28;20029;-86
2021/07/04 02:10:31;;;;;;;9.15;6.82;;;18.70;92.70;;;;;;5067149;28;20052;-86
2021/07/04 02:12:57;;;;;;;10.35;7.22;;;18.70;92.70;;;;;;5064347;28;20025;-88
2021/07/04 02:15:29;;;;;;;10.00;6.63;;;18.70;92.70;;;;;;5063458;28;20031;-88
2021/07/04 02:17:55;;;;;;;8.85;6.65;;;18.70;92.80;;;;;;5063411;28;20481;-88
2021/07/04 02:20:33;;;;;;;7.47;5.47;;;18.70;92.80;;;;;;5063309;28;20020;-88
2021/07/04 02:23:21;;;;;;;7.57;6.38;;;18.80;92.80;;;;;;5064046;28;20060;-88
2021/07/04 02:25:48;;;;;;;10.95;7.45;;;18.80;92.80;;;;;;5064872;28;20060;-88
2021/07/04 02:28:17;;;;;;;9.48;6.00;;;18.70;92.80;;;;;;5063305;28;20027;-88
2021/07/04 02:30:44;;;;;;;10.32;6.55;;;18.80;92.80;;;;;;5061843;28;20103;-86
2021/07/04 02:33:11;;;;;;;9.57;6.70;;;18.80;92.80;;;;;;5062305;28;20157;-87
2021/07/04 02:35:43;;;;;;;8.55;5.82;;;18.80;92.70;;;;;;5062062;28;20461;-87
2021/07/04 02:38:09;;;;;;;10.18;6.68;;;18.80;92.70;;;;;;5062337;28;20511;-87
2021/07/04 02:40:36;;;;;;;8.32;6.55;;;18.80;92.70;;;;;;5079726;28;20027;-87
2021/07/04 02:43:03;;;;;;;8.90;6.82;;;18.80;92.70;;;;;;5062077;28;20026;-89
2021/07/04 02:45:29;;;;;;;10.05;7.47;;;18.80;92.70;;;;;;5062643;28;20033;-87
2021/07/04 02:47:55;;;;;;;9.77;6.85;;;18.80;93.10;;;;;;5066195;28;20017;-88
2021/07/04 02:50:21;;;;;;;11.13;7.90;;;18.80;92.90;;;;;;5070639;28;20060;-87
2021/07/04 02:52:52;;;;;;;9.68;7.38;;;18.80;92.90;;;;;;5066844;28;20016;-86
2021/07/04 02:55:19;;;;;;;8.95;7.13;;;18.90;93.00;;;;;;5080447;28;20032;-86
2021/07/04 02:57:45;;;;;;;9.82;7.53;;;18.90;93.00;;;;;;5077012;28;20107;-85
2021/07/04 03:00:13;;;;;;;11.68;7.32;;;18.80;93.00;;;;;;5063663;28;20021;-85
2021/07/04 03:02:39;;;;;;;12.30;7.95;;;18.90;93.00;;;;;;5062967;28;20039;-86
2021/07/04 03:05:07;;;;;;;9.73;7.63;;;18.90;93.00;;;;;;5063710;28;20024;-87
2021/07/04 03:07:32;;;;;;;9.77;7.07;;;18.80;93.00;;;;;;5064213;28;20028;-87
2021/07/04 03:09:58;;;;;;;9.48;7.63;;;18.80;93.00;;;;;;5063115;28;20032;-87
2021/07/04 03:12:24;;;;;;;9.45;5.50;;;18.90;93.00;;;;;;5064374;28;20024;-88
2021/07/04 03:14:50;;;;;;;9.73;6.28;;;18.80;91.90;;;;;;5063780;28;20029;-86
2021/07/04 03:17:15;;;;;;;10.73;7.15;;;18.80;92.20;;;;;;5061253;28;20074;-87
2021/07/04 03:19:41;;;;;;;9.20;6.97;;;18.80;92.40;;;;;;5079398;28;20029;-85
2021/07/04 03:22:07;;;;;;;9.10;6.60;;;18.80;92.50;;;;;;5061534;28;20433;-87
2021/07/04 03:24:32;;;;;;;10.38;6.80;;;18.80;92.60;;;;;;5060213;28;20039;-85
2021/07/04 03:26:58;;;;;;;11.45;7.10;;;18.80;92.60;;;;;;5058927;28;20027;-85
2021/07/04 03:29:24;;;;;;;9.82;6.88;;;18.80;92.60;;;;;;5061286;28;20032;-86
2021/07/04 03:31:49;;;;;;;10.85;7.28;;;18.80;92.70;;;;;;5059398;28;20132;-84
2021/07/04 03:34:15;;;;;;;9.82;7.35;;;18.80;92.70;;;;;;5059022;28;20017;-84
2021/07/04 03:36:41;;;;;;;12.43;7.68;;;18.80;92.80;;;;;;5057644;28;20020;-85
2021/07/04 03:39:07;;;;;;;10.82;7.72;;;18.80;92.80;;;;;;5058107;28;20457;-87
2021/07/04 03:41:32;;;;;;;10.88;8.18;;;18.80;92.80;;;;;;5058854;28;20025;-87
2021/07/04 03:44:01;;;;;;;9.55;7.28;;;18.80;92.80;;;;;;5060270;28;20048;-85
2021/07/04 03:46:28;;;;;;;12.77;8.13;;;18.80;92.80;;;;;;5060669;28;20016;-86
2021/07/04 03:48:54;;;;;;;12.90;8.43;;;18.80;92.80;;;;;;5060216;28;20026;-87
2021/07/04 03:51:20;;;;;;;12.40;8.45;;;18.80;92.90;;;;;;5056899;28;20045;-86
2021/07/04 03:53:46;;;;;;;11.18;8.07;;;18.80;92.80;;;;;;5061180;28;20025;-86
2021/07/04 03:56:11;;;;;;;11.00;8.13;;;18.80;92.80;;;;;;5078193;28;20009;-85
2021/07/04 03:58:37;;;;;;;10.52;8.75;;;18.80;92.80;;;;;;5074379;28;20075;-87
2021/07/04 04:01:03;;;;;;;11.90;9.38;;;18.80;92.80;;;;;;5073683;28;20092;-86
2021/07/04 04:03:28;;;;;;;10.70;8.82;;;18.80;92.80;;;;;;5065108;28;20083;-88
2021/07/04 04:05:56;;;;;;;14.00;10.25;;;18.80;92.80;;;;;;5071662;28;20044;-89
2021/07/04 04:08:22;;;;;;;14.43;9.50;;;18.80;92.80;;;;;;5062863;28;20489;-88
2021/07/04 04:10:47;;;;;;;13.18;8.73;;;18.80;92.70;;;;;;5057595;28;20025;-88
2021/07/04 04:13:13;;;;;;;13.32;10.43;;;18.80;92.80;;;;;;5057594;28;20087;-88
2021/07/04 04:15:39;;;;;;;14.68;10.23;;;18.80;92.80;;;;;;5057782;28;20017;-89
2021/07/04 04:18:06;;;;;;;11.18;8.50;;;18.80;92.80;;;;;;5057203;28;20025;-89
2021/07/04 04:20:31;;;;;;;12.23;10.32;;;18.80;92.80;;;;;;5057178;28;20041;-88
2021/07/04 04:22:57;;;;;;;14.23;10.93;;;18.70;92.80;;;;;;5055382;28;20052;-87
2021/07/04 04:25:23;;;;;;;13.07;10.75;;;18.80;92.90;;;;;;5059321;28;20028;-86
2021/07/04 04:27:48;;;;;;;13.43;10.27;;;18.80;92.80;;;;;;5064042;28;20021;-88
2021/07/04 04:30:15;;;;;;;15.05;11.75;;;18.80;92.80;;;;;;5056117;28;20021;-87
2021/07/04 04:32:40;;;;;;;14.43;10.98;;;18.80;92.90;;;;;;5040189;28;20029;-87
2021/07/04 04:35:08;;;;;;;13.20;10.10;;;18.90;93.00;;;;;;5056422;28;20381;-88
2021/07/04 04:37:34;;;;;;;13.00;10.85;;;18.80;93.00;;;;;;5055862;28;20021;-87
2021/07/04 04:39:59;;;;;;;14.80;11.85;;;18.90;93.30;;;;;;5057653;28;20009;-87
2021/07/04 04:42:25;;;;;;;14.93;12.20;;;18.90;93.00;;;;;;5063795;28;20055;-87
2021/07/04 04:44:51;;;;;;;13.70;11.32;;;18.90;93.00;;;;;;5072290;28;20017;-87
2021/07/04 04:47:17;;;;;;;14.70;11.43;;;18.90;93.00;;;;;;5076700;28;20036;-88
2021/07/04 04:49:43;;;;;;;13.05;11.45;;;18.90;92.90;;;;;;5061897;28;20044;-88
2021/07/04 04:52:08;;;;;;;14.85;12.27;;;18.90;93.00;;;;;;5054040;28;20448;-88
2021/07/04 04:54:34;;;;;;;14.32;11.30;;;18.90;93.00;;;;;;5054632;28;20036;-87
2021/07/04 04:57:05;;;;;;;14.90;11.80;;;19.00;92.90;;;;;;5054964;28;20401;-87
2021/07/04 04:59:36;;;;;;;14.20;11.85;;;19.00;92.90;;;;;;5052736;28;20025;-85
2021/07/04 05:02:03;;;;;;;14.30;11.63;;;19.00;92.90;;;;;;5052680;28;20021;-84
2021/07/04 05:04:29;;;;;;;14.05;10.13;;;19.00;92.80;;;;;;5052808;28;20056;-86
2021/07/04 05:06:54;;;;;;;14.95;12.35;;;19.00;92.60;;;;;;5052256;28;20118;-85
2021/07/04 05:09:20;;;;;;;17.58;11.25;;;19.00;92.70;;;;;;5053063;28;20028;-88
2021/07/04 05:11:48;;;;;;;16.63;12.18;;;19.10;92.70;;;;;;5053758;28;20060;-88
2021/07/04 05:14:14;;;;;;;17.73;13.30;;;19.20;92.70;;;;;;5054268;28;20017;-88
2021/07/04 05:16:39;;;;;;;14.75;12.77;;;19.20;92.60;;;;;;5056309;28;20047;-86
2021/07/04 05:19:05;;;;;;;14.23;12.73;;;19.20;92.50;;;;;;5056989;28;20518;-87
2021/07/04 05:21:34;;;;;;;15.40;13.60;;;19.20;92.50;;;;;;5056000;28;20488;-88
2021/07/04 05:24:05;;;;;;;16.05;12.73;;;19.20;92.50;;;;;;5056038;28;20025;-89
2021/07/04 05:26:31;;;;;;;15.73;13.30;;;19.30;92.50;;;;;;5055959;28;20029;-88
2021/07/04 05:28:58;;;;;;;17.63;13.43;;;19.30;92.40;;;;;;5056898;28;20021;-88
2021/07/04 05:31:23;;;;;;;16.42;12.75;;;19.30;92.40;;;;;;5056114;28;20017;-88
2021/07/04 05:33:49;;;;;;;19.58;13.90;;;19.40;92.20;;;;;;5055224;28;20343;-87
2021/07/04 05:36:15;;;;;;;20.15;14.75;;;19.40;92.20;;;;;;5055825;28;20029;-88
2021/07/04 05:38:43;;;;;;;16.25;12.98;;;19.60;92.10;;;;;;5056402;28;20021;-88
2021/07/04 05:41:10;;;;;;;18.42;16.15;;;19.50;91.70;;;;;;5055051;28;20429;-87
2021/07/04 05:43:38;;;;;;;19.55;16.17;;;19.60;91.60;;;;;;5057227;28;20025;-87
2021/07/04 05:46:03;;;;;;;21.00;17.20;;;19.60;91.60;;;;;;5055518;28;20036;-87
2021/07/04 05:48:29;;;;;;;23.20;18.40;;;19.60;91.40;;;;;;5056164;28;20021;-87
2021/07/04 05:50:56;;;;;;;22.75;18.33;;;19.50;91.60;;;;;;5057599;28;20036;-86
2021/07/04 05:53:22;;;;;;;24.45;19.90;;;19.50;91.60;;;;;;5057804;28;20048;-87
2021/07/04 05:55:47;;;;;;;25.45;20.33;;;19.40;91.60;;;;;;5059320;28;20028;-85
2021/07/04 05:58:13;;;;;;;23.63;19.25;;;19.40;91.60;;;;;;5073158;28;20029;-88
2021/07/04 06:00:39;;;;;;;26.92;22.23;;;19.40;91.70;;;;;;5075782;28;20020;-87
2021/07/04 06:03:05;;;;;;;25.27;20.63;;;19.40;91.80;;;;;;5074325;28;20049;-85
2021/07/04 06:05:31;;;;;;;29.42;22.38;;;19.50;91.80;;;;;;5074405;28;20052;-88
2021/07/04 06:07:56;;;;;;;31.02;22.52;;;19.60;91.60;;;;;;5070981;28;20025;-88
2021/07/04 06:10:22;;;;;;;27.80;21.15;;;19.70;91.00;;;;;;5058156;28;20059;-88
2021/07/04 06:12:48;;;;;;;27.23;20.65;;;19.70;91.00;;;;;;5055005;28;20051;-89
2021/07/04 06:15:14;;;;;;;25.40;19.98;;;19.70;91.00;;;;;;5055829;28;20032;-88
2021/07/04 06:17:40;;;;;;;28.00;20.05;;;19.70;91.20;;;;;;5053310;28;20021;-87
2021/07/04 06:20:07;;;;;;;28.17;21.65;;;19.80;91.20;;;;;;5054186;28;20040;-85
2021/07/04 06:22:35;;;;;;;31.73;24.17;;;19.90;91.30;;;;;;5056137;28;20029;-88
2021/07/04 06:25:04;;;;;;;31.30;23.88;;;19.90;91.00;;;;;;5055488;28;20017;-87
2021/07/04 06:27:30;;;;;;;33.20;24.60;;;19.90;91.10;;;;;;5055939;28;20031;-88
2021/07/04 06:29:56;;;;;;;34.08;25.85;;;19.90;90.70;;;;;;5054246;28;20132;-88
2021/07/04 06:32:21;;;;;;;35.03;25.92;;;19.90;90.70;;;;;;5059755;28;20029;-87
2021/07/04 06:34:47;;;;;;;36.97;29.20;;;19.90;90.70;;;;;;5058587;28;20025;-89
2021/07/04 06:37:13;;;;;;;39.75;27.23;;;19.90;90.40;;;;;;5075111;28;20056;-88
2021/07/04 06:39:38;;;;;;;39.50;26.95;;;19.90;90.50;;;;;;5075591;28;20021;-88
2021/07/04 06:42:04;;;;;;;35.67;26.42;;;20.00;90.60;;;;;;5058298;28;20016;-88
2021/07/04 06:44:30;;;;;;;48.95;36.53;;;20.00;90.60;;;;;;5055833;28;20091;-88
2021/07/04 06:46:55;;;;;;;43.15;31.98;;;20.00;90.70;;;;;;5054832;28;20507;-88
2021/07/04 06:49:21;;;;;;;42.85;31.15;;;20.00;90.50;;;;;;5057889;28;20105;-88
2021/07/04 06:51:47;;;;;;;44.30;32.70;;;20.10;90.60;;;;;;5060690;28;20021;-88
2021/07/04 06:54:13;;;;;;;47.45;35.53;;;20.20;90.60;;;;;;5063167;28;20028;-87
2021/07/04 06:56:38;;;;;;;45.13;34.40;;;20.30;90.30;;;;;;5062839;28;20128;-88
2021/07/04 06:59:04;;;;;;;43.53;32.97;;;20.20;90.20;;;;;;5060947;28;20103;-87
2021/07/04 07:01:31;;;;;;;41.95;31.42;;;20.20;90.30;;;;;;5062549;28;20300;-89
2021/07/04 07:03:57;;;;;;;43.65;33.28;;;20.20;90.10;;;;;;5080175;28;20429;-88
2021/07/04 07:06:25;;;;;;;47.90;36.10;;;20.20;90.30;;;;;;5063137;28;20028;-89
2021/07/04 07:08:50;;;;;;;49.35;34.72;;;20.30;90.20;;;;;;5063271;28;20021;-89
2021/07/04 07:11:16;;;;;;;43.75;33.05;;;20.30;90.10;;;;;;5058878;28;20027;-88
2021/07/04 07:13:42;;;;;;;48.22;35.45;;;20.30;90.10;;;;;;5059056;28;20025;-89
2021/07/04 07:16:07;;;;;;;34.90;27.90;;;20.40;90.00;;;;;;5059353;28;20024;-88
2021/07/04 07:18:33;;;;;;;38.33;30.48;;;20.40;89.60;;;;;;5059125;28;20398;-88
2021/07/04 07:21:14;;;;;;;39.92;31.13;;;20.40;89.30;;;;;;5057460;28;20033;-89
2021/07/04 07:23:41;;;;;;;44.67;32.38;;;20.40;89.50;;;;;;5076845;28;20112;-88
2021/07/04 07:26:07;;;;;;;45.60;34.05;;;20.40;89.80;;;;;;5059541;28;20055;-89
2021/07/04 07:28:33;;;;;;;44.17;33.22;;;20.40;89.90;;;;;;5056944;28;21082;-86
2021/07/04 07:30:58;;;;;;;39.63;29.40;;;20.40;89.90;;;;;;5058017;28;20380;-86
2021/07/04 07:33:24;;;;;;;49.15;35.15;;;20.40;89.80;;;;;;5058847;28;20029;-87
2021/07/04 07:35:51;;;;;;;48.55;35.17;;;20.50;89.90;;;;;;5059036;28;20024;-88
2021/07/04 07:38:18;;;;;;;43.28;33.28;;;20.60;89.80;;;;;;5059057;28;20528;-88
2021/07/04 07:40:44;;;;;;;48.83;36.88;;;20.70;89.60;;;;;;5059825;28;20108;-85
2021/07/04 07:43:09;;;;;;;23.98;18.50;;;21.00;88.90;;;;;;5071978;28;20039;-87
2021/07/04 07:45:35;;;;;;;35.05;28.30;;;21.10;86.50;;;;;;5058849;28;20047;-86
2021/07/04 07:48:01;;;;;;;48.03;36.15;;;21.10;86.90;;;;;;5058533;28;20040;-87
2021/07/04 07:50:26;;;;;;;42.08;32.72;;;21.00;86.00;;;;;;5077347;28;20480;-86
2021/07/04 07:52:52;;;;;;;28.60;21.58;;;21.00;86.40;;;;;;5061432;28;20029;-87
2021/07/04 07:55:18;;;;;;;42.78;33.15;;;21.00;85.60;;;;;;5080782;28;20025;-88
2021/07/04 07:57:44;;;;;;;46.28;33.58;;;21.20;86.00;;;;;;5064550;28;20027;-88
2021/07/04 08:00:12;;;;;;;43.55;33.63;;;21.10;85.60;;;;;;5066236;28;20019;-86
2021/07/04 08:02:37;;;;;;;43.08;32.63;;;21.20;85.80;;;;;;5074058;28;20047;-88
2021/07/04 08:05:04;;;;;;;38.35;30.67;;;21.20;85.70;;;;;;5080154;28;20028;-88
2021/07/04 08:07:30;;;;;;;44.92;33.47;;;21.20;85.70;;;;;;5081316;28;20032;-88
2021/07/04 08:09:56;;;;;;;40.53;30.90;;;21.30;85.10;;;;;;5080831;28;20025;-89
2021/07/04 08:12:22;;;;;;;41.95;32.97;;;21.40;85.50;;;;;;5062131;28;20036;-87
2021/07/04 08:14:47;;;;;;;35.22;28.52;;;21.40;84.00;;;;;;5059695;28;20020;-87
2021/07/04 08:17:13;;;;;;;38.28;30.25;;;21.40;85.10;;;;;;5058828;28;20037;-89
2021/07/04 08:19:39;;;;;;;33.47;25.63;;;21.40;85.00;;;;;;5060782;28;20020;-86
2021/07/04 08:22:05;;;;;;;33.80;25.45;;;21.50;84.80;;;;;;5061020;28;20373;-88
2021/07/04 08:24:31;;;;;;;38.58;27.20;;;21.60;84.50;;;;;;5066430;28;20028;-87
2021/07/04 08:26:56;;;;;;;35.08;26.65;;;21.70;84.30;;;;;;5075836;28;20081;-87
2021/07/04 08:29:22;;;;;;;35.90;23.52;;;21.70;83.80;;;;;;5080245;28;20024;-87
2021/07/04 08:31:48;;;;;;;30.80;23.55;;;21.80;83.00;;;;;;5063538;28;20032;-87
2021/07/04 08:34:14;;;;;;;26.55;20.50;;;21.90;82.20;;;;;;5067026;28;20112;-88
2021/07/04 08:36:39;;;;;;;21.63;16.58;;;21.90;81.80;;;;;;5062852;28;20108;-88
2021/07/04 08:39:06;;;;;;;33.50;26.50;;;22.00;81.90;;;;;;5062060;28;20381;-88
2021/07/04 08:41:33;;;;;;;31.17;24.48;;;22.10;81.70;;;;;;5061291;28;20025;-86
2021/07/04 08:44:05;;;;;;;28.48;21.23;;;22.10;81.50;;;;;;5061619;28;20029;-85
2021/07/04 08:46:30;;;;;;;27.05;20.33;;;22.10;81.20;;;;;;5059069;28;20397;-86
2021/07/04 08:48:56;;;;;;;23.33;17.05;;;22.10;80.70;;;;;;5059924;28;20004;-88
2021/07/04 08:51:22;;;;;;;33.28;25.30;;;22.10;80.40;;;;;;5057442;28;20068;-83
2021/07/04 08:53:48;;;;;;;24.38;18.25;;;22.30;80.60;;;;;;5056019;28;20075;-84
2021/07/04 08:56:13;;;;;;;20.60;16.00;;;22.40;80.10;;;;;;5057114;28;20016;-84
2021/07/04 08:58:39;;;;;;;26.70;20.10;;;22.50;79.20;;;;;;5057191;28;20169;-86
2021/07/04 09:01:09;;;;;;;28.27;21.42;;;22.60;79.00;;;;;;5057055;28;20032;-86
2021/07/04 09:03:35;;;;;;;23.25;19.08;;;22.70;78.10;;;;;;5058271;28;20385;-86
2021/07/04 09:06:01;;;;;;;31.75;22.75;;;22.80;77.80;;;;;;5058740;28;20038;-87
2021/07/04 09:08:26;;;;;;;23.10;19.00;;;23.00;77.10;;;;;;5075823;28;20035;-88
2021/07/04 09:11:10;;;;;;;21.33;16.20;;;23.20;76.60;;;;;;5057897;28;20021;-86
2021/07/04 09:13:36;;;;;;;23.65;16.85;;;23.40;75.80;;;;;;5058597;28;20088;-87
2021/07/04 09:16:12;;;;;;;14.88;11.52;;;23.50;75.80;;;;;;5055042;28;20433;-89
2021/07/04 09:18:39;;;;;;;23.98;18.20;;;23.80;75.20;;;;;;5056916;28;20075;-88
2021/07/04 09:21:23;;;;;;;15.73;13.02;;;24.20;73.70;;;;;;5060571;28;20422;-88
2021/07/04 09:23:50;;;;;;;20.35;15.65;;;24.40;72.70;;;;;;5058075;28;20016;-87
2021/07/04 09:26:39;;;;;;;24.33;19.15;;;24.70;71.60;;;;;;5056942;28;20075;-88
2021/07/04 09:29:09;;;;;;;14.95;11.50;;;25.00;69.60;;;;;;5057123;28;20111;-89
2021/07/04 09:31:36;;;;;;;20.15;16.58;;;25.20;68.40;;;;;;5058614;28;20427;-87
2021/07/04 09:34:12;;;;;;;23.65;17.25;;;25.40;67.60;;;;;;5056332;28;20043;-83
2021/07/04 09:36:40;;;;;;;22.30;18.42;;;25.50;67.10;;;;;;5056668;28;20029;-82
2021/07/04 09:39:20;;;;;;;20.75;16.33;;;25.50;66.60;;;;;;5056004;28;20048;-85
2021/07/04 09:42:07;;;;;;;16.27;13.40;;;25.60;66.00;;;;;;5057918;28;20349;-87
2021/07/04 09:44:33;;;;;;;23.52;19.08;;;25.70;66.70;;;;;;5056013;28;20028;-85
2021/07/04 09:47:19;;;;;;;22.02;16.98;;;25.80;64.80;;;;;;5057337;28;20094;-85
2021/07/04 09:49:47;;;;;;;22.02;18.55;;;25.80;63.60;;;;;;5050389;28;20033;-83
2021/07/04 09:52:17;;;;;;;17.23;14.60;;;25.90;63.00;;;;;;5070308;28;20020;-84
2021/07/04 09:54:59;;;;;;;;;;;25.90;63.30;;;;;;5054010;28;20090;-82
2021/07/04 09:57:27;;;;;;;21.02;17.40;;;25.90;61.60;;;;;;5052410;28;19984;-83
2021/07/04 10:00:14;;;;;;;17.73;14.07;;;25.90;61.10;;;;;;5069229;28;20032;-82
2021/07/04 10:02:40;;;;;;;14.82;12.90;;;25.90;61.20;;;;;;5061896;28;20044;-83
2021/07/04 10:05:16;;;;;;;16.02;13.93;;;26.10;61.30;;;;;;5069487;28;20039;-83
2021/07/04 10:07:42;;;;;;;16.48;11.65;;;26.50;62.20;;;;;;5060253;28;20025;-84
2021/07/04 10:10:10;;;;;;;15.07;10.70;;;26.60;62.20;;;;;;5063029;28;20048;-82
2021/07/04 10:12:36;;;;;;;10.30;8.13;;;26.50;61.70;;;;;;5064924;28;20032;-81
2021/07/04 10:15:03;;;;;;;10.80;8.75;;;26.40;63.80;;;;;;5059986;28;20032;-83
2021/07/04 10:17:29;;;;;;;12.25;9.57;;;26.40;64.60;;;;;;5068138;28;20088;-82
2021/07/04 10:19:59;;;;;;;9.23;7.00;;;26.50;64.40;;;;;;5075997;28;20043;-83
2021/07/04 10:22:31;;;;;;;9.57;7.60;;;26.80;64.10;;;;;;5065698;28;20134;-82
2021/07/04 10:24:57;;;;;;;10.18;8.07;;;27.10;63.40;;;;;;5056957;28;20036;-83
2021/07/04 10:27:23;;;;;;;8.93;7.00;;;27.40;62.90;;;;;;5059521;28;20073;-82
2021/07/04 10:29:49;;;;;;;12.32;9.93;;;27.60;62.10;;;;;;5077985;28;20024;-84
2021/07/04 10:32:15;;;;;;;14.98;11.32;;;27.30;62.90;;;;;;5059623;28;20024;-85
2021/07/04 10:34:44;;;;;;;16.33;14.27;;;27.00;60.90;;;;;;5059619;28;20031;-82
2021/07/04 10:37:10;;;;;;;13.25;10.05;;;26.80;61.20;;;;;;5059273;28;20491;-83
2021/07/04 10:39:36;;;;;;;11.02;9.38;;;26.70;60.70;;;;;;5059318;28;20016;-82
2021/07/04 10:42:05;;;;;;;14.85;13.07;;;26.80;63.70;;;;;;5059232;28;20029;-83
2021/07/04 10:44:44;;;;;;;12.70;11.02;;;27.10;61.80;;;;;;5059866;28;20032;-84
2021/07/04 10:47:24;;;;;;;16.20;13.25;;;27.00;62.30;;;;;;5061880;28;20235;-88
2021/07/04 10:49:51;;;;;;;15.63;12.43;;;27.00;59.00;;;;;;5061330;28;20029;-85
2021/07/04 10:52:23;;;;;;;19.38;15.52;;;26.90;59.70;;;;;;5063392;28;20103;-84
2021/07/04 10:54:52;;;;;;;10.48;8.80;;;26.90;61.00;;;;;;5067822;28;20107;-85
2021/07/04 10:57:29;;;;;;;16.17;14.48;;;26.90;63.50;;;;;;5059273;28;20031;-86
2021/07/04 11:00:02;;;;;;;16.95;11.65;;;26.80;61.20;;;;;;5059827;28;20115;-84
2021/07/04 11:02:57;;;;;;;16.70;12.18;;;26.80;61.20;;;;;;5060782;28;20105;-83
2021/07/04 11:05:43;;;;;;;19.70;15.32;;;26.80;60.10;;;;;;5058568;28;20104;-85
2021/07/04 11:08:19;;;;;;;17.67;13.75;;;27.00;57.40;;;;;;5059169;28;20024;-84
2021/07/04 11:10:48;;;;;;;14.90;11.45;;;27.30;57.30;;;;;;5060895;28;20419;-87
2021/07/04 11:13:19;;;;;;;18.60;15.32;;;27.50;58.40;;;;;;5060850;28;20025;-88
2021/07/04 11:15:51;;;;;;;16.67;13.40;;;27.50;58.10;;;;;;5059926;28;20029;-85
2021/07/04 11:18:20;;;;;;;14.68;11.35;;;27.40;57.50;;;;;;5060339;28;20029;-86
2021/07/04 11:20:48;;;;;;;12.98;10.27;;;27.20;56.10;;;;;;5060806;28;20028;-88
2021/07/04 11:23:18;;;;;;;15.90;10.65;;;27.10;54.40;;;;;;5060017;28;20036;-86
2021/07/04 11:25:54;;;;;;;9.52;6.72;;;26.90;53.90;;;;;;5060810;28;20036;-87
2021/07/04 11:28:26;;;;;;;11.43;9.15;;;27.00;62.80;;;;;;5061207;28;20031;-87
2021/07/04 11:30:53;;;;;;;11.18;6.93;;;27.00;60.20;;;;;;5072692;28;20012;-86
2021/07/04 11:33:24;;;;;;;13.60;11.10;;;27.00;59.10;;;;;;5077992;28;20039;-87
2021/07/04 11:35:51;;;;;;;14.90;11.63;;;26.80;55.50;;;;;;5078653;28;20024;-86
2021/07/04 11:38:18;;;;;;;10.90;9.02;;;26.70;55.60;;;;;;5077096;28;20124;-86
2021/07/04 11:40:45;;;;;;;12.88;10.05;;;26.60;58.00;;;;;;5078297;28;20028;-86
2021/07/04 11:43:16;;;;;;;9.23;7.13;;;26.60;56.50;;;;;;5078543;28;20012;-85
2021/07/04 11:46:01;;;;;;;14.90;11.63;;;26.70;60.40;;;;;;5077718;28;20109;-81
2021/07/04 11:48:50;;;;;;;11.32;8.73;;;26.70;56.00;;;;;;5077208;28;20020;-82
2021/07/04 11:51:27;;;;;;;12.00;9.50;;;26.80;58.00;;;;;;5075226;28;20522;-82
2021/07/04 11:53:55;;;;;;;9.77;6.88;;;26.80;59.00;;;;;;5076127;28;20369;-82
2021/07/04 11:56:21;;;;;;;11.15;7.53;;;27.00;60.80;;;;;;5075281;28;20024;-82
2021/07/04 11:58:46;;;;;;;8.60;6.57;;;27.00;55.90;;;;;;5074143;28;20028;-81
2021/07/04 12:01:20;;;;;;;9.85;7.05;;;27.10;56.70;;;;;;5076870;28;20516;-82
2021/07/04 12:03:55;;;;;;;8.27;6.07;;;27.00;56.50;;;;;;5072345;28;20027;-82
2021/07/04 12:06:22;;;;;;;9.25;7.10;;;27.10;57.10;;;;;;5074608;28;20084;-83
2021/07/04 12:09:06;;;;;;;9.23;7.18;;;27.20;59.50;;;;;;5064985;28;20055;-83
2021/07/04 12:11:58;;;;;;;10.50;7.10;;;27.40;55.60;;;;;;5071601;28;20028;-83
2021/07/04 12:14:24;;;;;;;9.52;7.40;;;27.50;62.40;;;;;;5062528;28;20940;-82
2021/07/04 12:16:51;;;;;;;14.13;9.93;;;27.60;59.00;;;;;;5079665;28;20097;-83
2021/07/04 12:19:32;;;;;;;10.63;7.82;;;27.70;59.00;;;;;;5063664;28;20058;-83
2021/07/04 12:22:00;;;;;;;10.27;8.15;;;27.50;56.00;;;;;;5060847;28;20369;-82
2021/07/04 12:24:37;;;;;;;9.93;8.02;;;27.50;58.10;;;;;;5058840;28;20047;-83
2021/07/04 12:27:03;;;;;;;10.85;7.63;;;27.40;59.90;;;;;;5058621;28;20024;-83
2021/07/04 12:29:29;;;;;;;12.20;9.07;;;27.50;60.10;;;;;;5076423;28;20590;-82
2021/07/04 12:32:04;;;;;;;12.52;10.27;;;27.50;60.60;;;;;;5057644;28;20024;-84
2021/07/04 12:34:32;;;;;;;12.32;9.70;;;27.40;58.70;;;;;;5057754;28;20090;-84
2021/07/04 12:36:59;;;;;;;11.73;7.95;;;27.30;60.90;;;;;;5058444;28;20108;-85